SLRY  Reyes  Airport

Reyes, Bolivia

Add Bookmark
ICAO SLRY
IATA REY
Type Airport
Status Operational
Latitude
14° 18' 15" S
-14.304400
Longitude
67° 21' 12" W
-67.353401
Local (DST -4) UTC (GMT -4)
May 26, 2015 11:31 May 26, 2015 15:31
Sunrise-Sunset Local UTC
Begin Civil Twilight 06:21 10:21
Sunrise 06:44 10:44
Sunset 06:08 22:08
End Civil Twilight 06:31 22:31
VFR
VFR
MVFR
MVFR
IFR
VFR
LIFR
VFR
Unknown
Unavailable

Current Weather

METAR Observed VFR
SLRY 261500Z 00000KT 9999 FEW016 BKN080 29/24 Q1016 Tue, May 26, 2015 @ 15:00 UTC
(31 Minutes ago)
Visual Flight Rules
Wind Visibility Clouds Conditions
Calm 10 km or more
  • Few at 1,600 ft AGL
  • Broken at 8,000 ft AGL
  • No significant weather
Temperatures Readings Precipitation
Current Temp
29°C
84°F
Dewpoint
24°C
75°F
Heat Index
33°C
92°
Humidity 74%
Altimeter 30" Hg
Sea Level Pressure 1,016 mb
Field Elevation
280 m
919 ft
None Recorded

Additional weather within a 92.6km radius of SLRY

Map ICAO Location
SLRQ 20.7km SW (229°)
VFR
VFR
MVFR
MVFR
IFR
VFR
LIFR
VFR
Unknown
Unavailable
-
-

CheckWX.com is intended as a tool to help pilots better visualize weather data. It is not intended as a substitute for an official weather briefing obtained from a Flight Service Station. CheckWX.com does not meet the FAA requirements for an official pre-flight weather briefing. Therefore, it's important that pilots still call and obtain an official FSS pre-flight weather briefing.

© 2007-2015 CheckWX.com
15:31:23 UTC